Exeter, Virginia
Current Conditions -  °F | °C
As of 7:35 AM on Monday 20 Oct 2014 (Local Time) from KLNP Reporting Station
Clear Clear  
Wind Chill: 41°   Ceiling: Unl
Heat Index: 41°   Visibility: 10mi
Dew Point: 37°   Wind: 3mph
Humidity: 87%   Direction: 190°S
Pressure: 30.09"   Gusts: NA
Location:  36.9224°N, 82.7857°W
Report Text: KLNP 201135Z AUTO 19003KT 10SM CLR 05/03 A3009 RMK AO2
Loading
Personal Weather Stations






























Interactive Weather Map
Tropical Storm Tracking
New forecast layout! Learn more

10-Day Weather Forecast

Advertisements
Track Severe Weather on mobile